createdAt,value
2017-09-21T00:00:11.660Z,6.90
2017-09-21T00:02:37.628Z,10.40
2017-09-21T00:05:03.575Z,6.83
2017-09-21T00:07:29.678Z,8.80
2017-09-21T00:09:55.641Z,5.87
2017-09-21T00:12:21.581Z,7.00
2017-09-21T00:14:48.308Z,7.37
2017-09-21T00:17:15.000Z,6.17
2017-09-21T00:19:40.984Z,6.53
2017-09-21T00:22:06.932Z,7.20
2017-09-21T00:24:32.878Z,7.70
2017-09-21T00:26:58.857Z,7.17
2017-09-21T00:29:25.568Z,6.53
2017-09-21T00:31:51.533Z,7.37
2017-09-21T00:34:17.474Z,7.30
2017-09-21T00:36:43.480Z,7.70
2017-09-21T00:39:09.421Z,6.43
2017-09-21T00:41:36.152Z,7.73
2017-09-21T00:44:02.141Z,7.10
2017-09-21T00:46:28.082Z,6.70
2017-09-21T00:48:54.073Z,7.77
2017-09-21T00:51:20.801Z,7.60
2017-09-21T00:53:47.480Z,8.00
2017-09-21T00:56:13.425Z,8.60
2017-09-21T00:58:40.137Z,7.40
2017-09-21T01:01:06.127Z,6.40
2017-09-21T01:03:32.118Z,6.57
2017-09-21T01:05:58.076Z,7.17
2017-09-21T01:08:24.799Z,9.17
2017-09-21T01:10:50.756Z,7.23
2017-09-21T01:13:16.758Z,7.63
2017-09-21T01:15:42.703Z,7.90
2017-09-21T01:18:08.654Z,8.13
2017-09-21T01:20:35.382Z,8.23
2017-09-21T01:23:02.071Z,7.60
2017-09-21T01:25:28.060Z,8.40
2017-09-21T01:27:54.006Z,8.63
2017-09-21T01:30:19.957Z,8.00
2017-09-21T01:32:45.962Z,6.90
2017-09-21T01:35:11.906Z,8.80
2017-09-21T01:37:37.883Z,9.87
2017-09-21T01:40:03.858Z,9.80
2017-09-21T01:42:30.587Z,8.20
2017-09-21T01:44:57.343Z,7.70
2017-09-21T01:47:23.302Z,7.03
2017-09-21T01:49:49.327Z,7.87
2017-09-21T01:52:16.018Z,6.93
2017-09-21T01:54:41.970Z,8.00
2017-09-21T01:57:07.972Z,8.97
2017-09-21T01:59:33.919Z,8.20
2017-09-21T02:01:59.886Z,8.13
2017-09-21T02:04:26.601Z,7.53
2017-09-21T02:06:53.298Z,9.03
2017-09-21T02:09:19.281Z,9.40
2017-09-21T02:11:45.966Z,8.00
2017-09-21T02:14:11.986Z,10.67
2017-09-21T02:16:37.936Z,9.67
2017-09-21T02:19:03.938Z,6.90
2017-09-21T02:21:29.886Z,9.07
2017-09-21T02:23:56.592Z,9.97
2017-09-21T02:26:22.579Z,8.97
2017-09-21T02:28:48.538Z,9.27
2017-09-21T02:31:14.481Z,9.40
2017-09-21T02:33:40.475Z,9.53
2017-09-21T02:36:06.425Z,9.43
2017-09-21T02:38:32.374Z,10.03
2017-09-21T02:40:58.362Z,9.63
2017-09-21T02:43:25.077Z,8.70
2017-09-21T02:45:51.022Z,7.93
2017-09-21T02:48:17.010Z,9.70
2017-09-21T02:50:43.706Z,9.70
2017-09-21T02:53:09.647Z,9.53
2017-09-21T02:55:35.658Z,9.67
2017-09-21T02:58:01.647Z,9.17
2017-09-21T03:00:27.613Z,7.63
2017-09-21T03:02:53.594Z,9.90
2017-09-21T03:05:19.546Z,9.17
2017-09-21T03:07:45.542Z,8.63
2017-09-21T03:10:11.493Z,9.73
2017-09-21T03:12:38.191Z,12.77
2017-09-21T03:15:04.175Z,10.30
2017-09-21T03:17:30.134Z,8.97
2017-09-21T03:19:56.131Z,12.17
2017-09-21T03:22:22.829Z,11.50
2017-09-21T03:24:48.773Z,10.13
2017-09-21T03:27:15.490Z,10.63
2017-09-21T03:29:42.187Z,9.43
2017-09-21T03:32:08.134Z,11.70
2017-09-21T03:34:34.101Z,11.70
2017-09-21T03:37:00.078Z,11.70
2017-09-21T03:39:26.090Z,11.60
2017-09-21T03:41:52.058Z,11.43
2017-09-21T03:44:18.019Z,11.87
2017-09-21T03:46:44.030Z,10.23
2017-09-21T03:49:09.981Z,12.03
2017-09-21T03:51:35.973Z,9.83
2017-09-21T03:54:02.650Z,12.57
2017-09-21T03:56:28.621Z,11.83
2017-09-21T03:58:54.615Z,12.73
2017-09-21T04:01:21.310Z,13.67
2017-09-21T04:03:47.294Z,11.20
2017-09-21T04:06:13.237Z,10.40
2017-09-21T04:08:39.190Z,12.00
2017-09-21T04:11:05.178Z,11.90
2017-09-21T04:13:31.895Z,12.70
2017-09-21T04:15:57.910Z,11.30
2017-09-21T04:18:24.612Z,12.20
2017-09-21T04:20:50.561Z,11.20
2017-09-21T04:23:16.550Z,11.20
2017-09-21T04:25:42.515Z,16.00
2017-09-21T04:28:08.465Z,12.20
2017-09-21T04:30:34.443Z,12.90
2017-09-21T04:33:00.426Z,12.33
2017-09-21T04:35:27.111Z,15.03
2017-09-21T04:37:53.065Z,12.27
2017-09-21T04:40:19.070Z,12.30
2017-09-21T04:42:45.046Z,12.30
2017-09-21T04:45:11.001Z,12.23
2017-09-21T04:47:37.061Z,15.90
2017-09-21T04:50:03.058Z,12.87
2017-09-21T04:52:29.009Z,12.37
2017-09-21T04:54:55.742Z,12.50
2017-09-21T04:57:21.684Z,11.37
2017-09-21T04:59:47.640Z,14.37
2017-09-21T05:02:14.424Z,13.07
2017-09-21T05:04:41.171Z,12.23
2017-09-21T05:07:07.137Z,14.77
2017-09-21T05:09:33.098Z,11.73
2017-09-21T05:11:59.894Z,12.93
2017-09-21T05:14:25.868Z,12.33
2017-09-21T05:16:51.906Z,13.80
2017-09-21T05:19:17.869Z,12.27
2017-09-21T05:21:43.854Z,15.43
2017-09-21T05:24:10.551Z,14.47
2017-09-21T05:26:36.537Z,17.60
2017-09-21T05:29:02.486Z,13.40
2017-09-21T05:31:28.474Z,13.40
2017-09-21T05:33:54.437Z,13.33
2017-09-21T05:36:20.460Z,13.77
2017-09-21T05:38:46.434Z,14.53
2017-09-21T05:41:13.139Z,15.27
2017-09-21T05:43:39.153Z,14.93
2017-09-21T05:46:05.119Z,14.70
2017-09-21T05:48:31.103Z,14.43
2017-09-21T05:50:57.134Z,14.13
2017-09-21T05:53:23.090Z,15.07
2017-09-21T05:55:49.085Z,13.07
2017-09-21T05:58:15.050Z,14.27
2017-09-21T06:00:41.040Z,16.47
2017-09-21T06:03:07.026Z,16.20
2017-09-21T06:05:33.015Z,18.23
2017-09-21T06:07:59.006Z,16.77
2017-09-21T06:10:25.689Z,16.70
2017-09-21T06:12:51.658Z,15.00
2017-09-21T06:15:17.642Z,13.67
2017-09-21T06:17:44.376Z,14.30
2017-09-21T06:20:10.342Z,16.27
2017-09-21T06:22:36.305Z,19.63
2017-09-21T06:25:02.295Z,15.60
2017-09-21T06:27:29.037Z,18.40
2017-09-21T06:29:55.025Z,16.57
2017-09-21T06:32:21.718Z,16.10
2017-09-21T06:34:47.682Z,16.60
2017-09-21T06:37:13.698Z,18.60
2017-09-21T06:39:39.738Z,16.37
2017-09-21T06:42:05.746Z,16.67
2017-09-21T06:44:31.741Z,16.37
2017-09-21T06:46:57.729Z,16.90
2017-09-21T06:49:23.697Z,18.90
2017-09-21T06:51:49.661Z,16.40
2017-09-21T06:54:15.655Z,19.33
2017-09-21T06:56:41.610Z,20.07
2017-09-21T06:59:07.564Z,16.23
2017-09-21T07:01:33.648Z,15.80
2017-09-21T07:04:00.350Z,16.60
2017-09-21T07:06:26.341Z,14.73
2017-09-21T07:08:52.349Z,17.00
2017-09-21T07:11:18.308Z,18.37
2017-09-21T07:13:45.072Z,17.37
2017-09-21T07:16:11.019Z,19.90
2017-09-21T07:18:37.714Z,18.23
2017-09-21T07:21:03.730Z,17.20
2017-09-21T07:23:29.682Z,18.40
2017-09-21T07:25:56.385Z,20.17
2017-09-21T07:28:22.378Z,20.37
2017-09-21T07:30:48.362Z,19.17
2017-09-21T07:33:14.351Z,17.97
2017-09-21T07:35:40.308Z,19.53
2017-09-21T07:38:06.377Z,22.40
2017-09-21T07:40:32.339Z,22.03
2017-09-21T07:42:58.324Z,25.00
2017-09-21T07:45:24.333Z,22.30
2017-09-21T07:47:50.306Z,21.97
2017-09-21T07:50:23.435Z,22.10
2017-09-21T07:52:49.393Z,25.00
2017-09-21T07:55:15.359Z,22.73
2017-09-21T07:57:42.097Z,25.00
2017-09-21T08:00:08.795Z,23.90
2017-09-21T08:02:34.765Z,25.23
2017-09-21T08:05:00.778Z,28.10
2017-09-21T08:07:26.759Z,27.30
2017-09-21T08:09:52.705Z,28.27
2017-09-21T08:12:18.702Z,26.63
2017-09-21T08:14:44.642Z,28.17
2017-09-21T08:17:10.900Z,26.90
2017-09-21T08:19:36.914Z,23.83
2017-09-21T08:22:02.878Z,26.93
2017-09-21T08:24:28.886Z,28.30
2017-09-21T08:26:54.832Z,27.83
2017-09-21T08:29:21.563Z,24.73
2017-09-21T08:31:47.606Z,25.87
2017-09-21T08:34:13.567Z,22.57
2017-09-21T08:36:40.289Z,22.47
2017-09-21T08:39:07.036Z,23.00
2017-09-21T08:41:33.062Z,23.20
2017-09-21T08:43:59.054Z,20.83
2017-09-21T08:46:25.081Z,20.63
2017-09-21T08:48:51.103Z,20.77
2017-09-21T08:51:17.069Z,19.27
2017-09-21T08:53:43.077Z,18.30
2017-09-21T08:56:09.830Z,20.53
2017-09-21T08:58:35.854Z,19.73
2017-09-21T09:01:01.881Z,19.93
2017-09-21T09:03:27.907Z,19.27
2017-09-21T09:05:53.880Z,18.30
2017-09-21T09:08:19.842Z,19.77
2017-09-21T09:10:46.563Z,19.10
2017-09-21T09:13:13.261Z,18.70
2017-09-21T09:15:39.283Z,18.90
2017-09-21T09:18:05.246Z,20.37
2017-09-21T09:20:31.265Z,19.07
2017-09-21T09:22:57.330Z,16.60
2017-09-21T09:25:24.043Z,19.80
2017-09-21T09:27:50.026Z,25.00
2017-09-21T09:30:16.022Z,18.93
2017-09-21T09:32:42.031Z,21.43
2017-09-21T09:35:08.014Z,21.70
2017-09-21T09:37:33.991Z,19.87
2017-09-21T09:40:00.678Z,22.33
2017-09-21T09:42:26.658Z,26.17
2017-09-21T09:44:52.644Z,24.23
2017-09-21T09:47:18.623Z,25.83
2017-09-21T09:49:44.602Z,25.17
2017-09-21T09:52:10.635Z,26.97
2017-09-21T09:54:36.674Z,26.97
2017-09-21T09:57:03.419Z,26.17
2017-09-21T09:59:29.433Z,25.00
2017-09-21T10:01:55.621Z,23.90
2017-09-21T10:04:21.624Z,22.67
2017-09-21T10:06:47.570Z,25.63
2017-09-21T10:09:13.541Z,24.60
2017-09-21T10:11:40.267Z,23.83
2017-09-21T10:14:06.998Z,26.70
2017-09-21T10:16:33.754Z,26.00
2017-09-21T10:19:00.033Z,25.17
2017-09-21T10:21:25.987Z,24.27
2017-09-21T10:23:51.957Z,25.13
2017-09-21T10:26:18.665Z,26.63
2017-09-21T10:28:44.741Z,23.60
2017-09-21T10:31:10.729Z,24.20
2017-09-21T10:33:36.681Z,22.23
2017-09-21T10:36:02.645Z,21.90
2017-09-21T10:38:28.630Z,20.83
2017-09-21T10:40:55.353Z,18.40
2017-09-21T10:43:22.149Z,26.10
2017-09-21T10:45:48.103Z,20.70
2017-09-21T10:48:14.110Z,20.03
2017-09-21T10:50:40.102Z,19.30
2017-09-21T10:53:06.889Z,20.57
2017-09-21T10:55:32.882Z,21.47
2017-09-21T10:57:58.862Z,21.53
2017-09-21T11:00:25.642Z,18.97
2017-09-21T11:02:51.620Z,17.33
2017-09-21T11:05:17.575Z,19.07
2017-09-21T11:07:43.562Z,18.33
2017-09-21T11:10:09.546Z,19.20
2017-09-21T11:12:35.559Z,19.03
2017-09-21T11:15:01.534Z,24.93
2017-09-21T11:17:28.239Z,16.90
2017-09-21T11:19:54.228Z,16.80
2017-09-21T11:22:20.367Z,16.47
2017-09-21T11:24:47.106Z,17.77
2017-09-21T11:27:13.862Z,18.30
2017-09-21T11:29:39.825Z,18.80
2017-09-21T11:32:06.655Z,15.27
2017-09-21T11:34:33.394Z,18.93
2017-09-21T11:37:00.105Z,14.47
2017-09-21T11:39:26.104Z,15.77
2017-09-21T11:41:52.050Z,16.17
2017-09-21T11:44:18.064Z,16.20
2017-09-21T11:46:44.042Z,16.67
2017-09-21T11:49:10.737Z,15.83
2017-09-21T11:51:36.737Z,15.40
2017-09-21T11:54:02.723Z,18.27
2017-09-21T11:56:28.717Z,17.77
2017-09-21T11:58:54.669Z,18.73
2017-09-21T12:01:20.674Z,19.47
2017-09-21T12:03:46.630Z,17.77
2017-09-21T12:06:13.350Z,14.93
2017-09-21T12:08:40.079Z,15.30
2017-09-21T12:11:06.807Z,14.40
2017-09-21T12:13:33.512Z,14.10
2017-09-21T12:15:59.474Z,16.10
2017-09-21T12:18:25.424Z,14.20
2017-09-21T12:20:51.421Z,15.50
2017-09-21T12:23:17.373Z,16.27
2017-09-21T12:25:43.331Z,15.37
2017-09-21T12:28:09.310Z,14.27
2017-09-21T12:30:36.019Z,14.70
2017-09-21T12:33:02.046Z,17.97
2017-09-21T12:35:28.763Z,18.53
2017-09-21T12:37:55.449Z,16.77
2017-09-21T12:40:21.444Z,17.10
2017-09-21T12:42:47.415Z,17.30
2017-09-21T12:45:14.138Z,18.03
2017-09-21T12:47:40.877Z,15.53
2017-09-21T12:50:06.849Z,14.47
2017-09-21T12:52:32.837Z,16.57
2017-09-21T12:54:58.800Z,15.10
2017-09-21T12:57:24.783Z,13.93
2017-09-21T12:59:50.771Z,14.97
2017-09-21T13:02:16.753Z,12.93
2017-09-21T13:04:42.704Z,13.90
2017-09-21T13:07:08.699Z,12.80
2017-09-21T13:09:34.650Z,17.63
2017-09-21T13:12:00.644Z,15.17
2017-09-21T13:14:27.363Z,14.57
2017-09-21T13:16:54.070Z,14.23
2017-09-21T13:19:20.065Z,12.43
2017-09-21T13:21:46.022Z,13.83
2017-09-21T13:24:12.039Z,15.20
2017-09-21T13:26:38.007Z,15.67
2017-09-21T13:29:03.949Z,15.40
2017-09-21T13:31:30.669Z,13.87
2017-09-21T13:33:57.362Z,14.87
2017-09-21T13:36:24.162Z,13.77
2017-09-21T13:38:50.115Z,12.97
2017-09-21T13:41:16.074Z,12.40
2017-09-21T13:43:42.050Z,12.37
2017-09-21T13:46:08.746Z,12.73
2017-09-21T13:48:34.718Z,11.20
2017-09-21T13:51:00.733Z,11.30
2017-09-21T13:53:26.685Z,13.93
2017-09-21T13:55:53.418Z,12.80
2017-09-21T13:58:20.115Z,11.00
2017-09-21T14:00:46.097Z,13.40
2017-09-21T14:03:12.060Z,13.40
2017-09-21T14:05:38.841Z,12.20
2017-09-21T14:08:04.790Z,11.47
2017-09-21T14:10:31.509Z,14.17
2017-09-21T14:12:58.214Z,12.20
2017-09-21T14:15:24.192Z,11.33
2017-09-21T14:17:50.137Z,9.57
2017-09-21T14:20:16.150Z,11.47
2017-09-21T14:22:42.114Z,11.40
2017-09-21T14:25:08.077Z,12.00
2017-09-21T14:27:34.054Z,10.67
2017-09-21T14:30:00.021Z,9.70
2017-09-21T14:32:25.993Z,8.83
2017-09-21T14:34:51.941Z,8.90
2017-09-21T14:37:17.906Z,8.17
2017-09-21T14:39:43.916Z,9.77
2017-09-21T14:42:09.865Z,10.23
2017-09-21T14:44:35.837Z,10.43
2017-09-21T14:47:01.789Z,11.83
2017-09-21T14:49:27.785Z,10.80
2017-09-21T14:51:53.774Z,11.37
2017-09-21T14:54:26.642Z,11.80
2017-09-21T14:56:53.383Z,9.47
2017-09-21T14:59:19.336Z,12.27
2017-09-21T15:01:45.281Z,12.57
2017-09-21T15:04:12.006Z,12.30
2017-09-21T15:06:38.715Z,10.13
2017-09-21T15:09:04.786Z,12.70
2017-09-21T15:11:30.773Z,11.87
2017-09-21T15:13:56.737Z,12.70
2017-09-21T15:16:22.685Z,12.47
2017-09-21T15:18:49.421Z,12.57
2017-09-21T15:21:15.397Z,12.50
2017-09-21T15:23:41.355Z,14.17
2017-09-21T15:26:07.352Z,15.50
2017-09-21T15:28:33.305Z,17.83
2017-09-21T15:30:59.261Z,12.77
2017-09-21T15:33:25.225Z,15.00
2017-09-21T15:35:51.182Z,12.73
2017-09-21T15:38:17.177Z,12.67
2017-09-21T15:40:43.885Z,13.40
2017-09-21T15:43:10.585Z,17.00
2017-09-21T15:45:36.593Z,14.20
2017-09-21T15:48:02.586Z,14.03
2017-09-21T15:50:28.592Z,14.60
2017-09-21T15:52:54.595Z,16.97
2017-09-21T15:55:20.549Z,14.63
2017-09-21T15:57:46.510Z,14.33
2017-09-21T16:00:12.521Z,16.03
2017-09-21T16:02:38.556Z,15.50
2017-09-21T16:05:04.549Z,15.63
2017-09-21T16:07:30.531Z,16.57
2017-09-21T16:09:56.490Z,15.37
2017-09-21T16:12:22.499Z,13.97
2017-09-21T16:14:48.446Z,16.93
2017-09-21T16:17:14.401Z,14.03
2017-09-21T16:19:40.381Z,18.67
2017-09-21T16:22:06.354Z,17.57
2017-09-21T16:24:33.068Z,14.67
2017-09-21T16:26:59.107Z,17.37
2017-09-21T16:29:25.059Z,15.20
2017-09-21T16:31:51.029Z,15.50
2017-09-21T16:34:16.978Z,15.73
2017-09-21T16:36:42.969Z,13.93
2017-09-21T16:39:08.973Z,17.33
2017-09-21T16:41:34.937Z,16.70
2017-09-21T16:44:01.655Z,16.83
2017-09-21T16:46:28.366Z,16.73
2017-09-21T16:48:54.517Z,16.63
2017-09-21T16:51:20.470Z,17.13
2017-09-21T16:53:46.439Z,15.17
2017-09-21T16:56:12.417Z,16.43
2017-09-21T16:58:39.117Z,14.67
2017-09-21T17:01:05.124Z,16.30
2017-09-21T17:03:31.081Z,17.47
2017-09-21T17:05:57.065Z,15.93
2017-09-21T17:08:23.770Z,16.23
2017-09-21T17:10:49.717Z,16.37
2017-09-21T17:13:15.692Z,15.37
2017-09-21T17:15:41.654Z,16.73
2017-09-21T17:18:07.671Z,16.47
2017-09-21T17:20:33.637Z,15.37
2017-09-21T17:23:00.337Z,17.00
2017-09-21T17:25:26.309Z,15.60
2017-09-21T17:27:52.265Z,14.97
2017-09-21T17:30:18.279Z,17.00
2017-09-21T17:32:44.985Z,16.53
2017-09-21T17:35:10.941Z,16.77
2017-09-21T17:37:36.977Z,13.97
2017-09-21T17:40:03.666Z,15.80
2017-09-21T17:42:30.357Z,15.30
2017-09-21T17:44:56.345Z,17.10
2017-09-21T17:47:22.335Z,17.80
2017-09-21T17:49:48.326Z,14.27
2017-09-21T17:52:14.335Z,16.37
2017-09-21T17:54:40.314Z,17.37
2017-09-21T17:57:06.303Z,16.00
2017-09-21T17:59:32.290Z,15.97
2017-09-21T18:01:58.283Z,15.33
2017-09-21T18:04:24.234Z,16.57
2017-09-21T18:06:50.214Z,16.63
2017-09-21T18:09:16.174Z,17.13
2017-09-21T18:11:42.910Z,20.60
2017-09-21T18:14:08.873Z,22.50
2017-09-21T18:16:34.854Z,19.00
2017-09-21T18:19:00.838Z,17.67
2017-09-21T18:21:26.791Z,18.37
2017-09-21T18:23:52.779Z,21.23
2017-09-21T18:26:18.739Z,19.00
2017-09-21T18:28:45.460Z,18.53
2017-09-21T18:31:11.414Z,17.47
2017-09-21T18:33:37.401Z,17.00
2017-09-21T18:36:03.355Z,19.60
2017-09-21T18:38:29.353Z,18.30
2017-09-21T18:40:55.302Z,18.20
2017-09-21T18:43:21.259Z,17.27
2017-09-21T18:45:47.228Z,16.90
2017-09-21T18:48:13.918Z,16.53
2017-09-21T18:50:39.912Z,18.50
2017-09-21T18:53:05.905Z,18.03
2017-09-21T18:55:31.936Z,18.70
2017-09-21T18:57:57.888Z,16.47
2017-09-21T19:00:24.596Z,18.20
2017-09-21T19:02:50.561Z,20.00
2017-09-21T19:05:16.549Z,16.50
2017-09-21T19:07:42.562Z,19.77
2017-09-21T19:10:08.521Z,17.60
2017-09-21T19:12:34.496Z,20.10
2017-09-21T19:15:00.465Z,18.47
2017-09-21T19:17:27.218Z,19.13
2017-09-21T19:19:53.210Z,18.40
2017-09-21T19:22:19.157Z,18.17
2017-09-21T19:24:45.100Z,19.87
2017-09-21T19:27:11.873Z,18.23
2017-09-21T19:29:37.829Z,23.67
2017-09-21T19:32:03.820Z,21.87
2017-09-21T19:34:29.772Z,19.07
2017-09-21T19:36:56.473Z,20.53
2017-09-21T19:39:22.433Z,20.63
2017-09-21T19:41:48.468Z,18.87
2017-09-21T19:44:14.414Z,21.30
2017-09-21T19:46:41.207Z,22.30
2017-09-21T19:49:07.219Z,22.07
2017-09-21T19:51:33.218Z,22.43
2017-09-21T19:53:59.177Z,20.40
2017-09-21T19:56:25.154Z,23.27
2017-09-21T19:58:51.190Z,22.20
2017-09-21T20:01:17.910Z,21.50
2017-09-21T20:03:44.674Z,22.23
2017-09-21T20:06:10.645Z,20.87
2017-09-21T20:08:37.347Z,23.23
2017-09-21T20:11:03.305Z,21.57
2017-09-21T20:13:29.261Z,22.37
2017-09-21T20:15:55.257Z,22.93
2017-09-21T20:18:21.233Z,22.53
2017-09-21T20:20:47.190Z,21.60
2017-09-21T20:23:13.216Z,21.57
2017-09-21T20:25:39.922Z,22.00
2017-09-21T20:28:05.986Z,21.73
2017-09-21T20:30:31.937Z,21.20
2017-09-21T20:32:57.922Z,22.70
2017-09-21T20:35:23.901Z,20.13
2017-09-21T20:37:49.869Z,19.77
2017-09-21T20:40:15.841Z,21.47
2017-09-21T20:42:41.805Z,19.70
2017-09-21T20:45:08.538Z,19.10
2017-09-21T20:47:34.538Z,20.37
2017-09-21T20:50:01.251Z,19.40
2017-09-21T20:52:27.998Z,18.80
2017-09-21T20:54:53.998Z,18.33
2017-09-21T20:57:20.761Z,20.07
2017-09-21T20:59:46.714Z,18.10
2017-09-21T21:02:12.666Z,18.17
2017-09-21T21:04:38.669Z,16.67
2017-09-21T21:07:04.762Z,17.97
2017-09-21T21:09:31.501Z,19.20
2017-09-21T21:11:57.470Z,20.20
2017-09-21T21:14:23.458Z,20.70
2017-09-21T21:16:49.457Z,19.77
2017-09-21T21:19:15.435Z,17.83
2017-09-21T21:21:41.421Z,16.50
2017-09-21T21:24:08.161Z,14.77
2017-09-21T21:26:34.889Z,15.37
2017-09-21T21:29:00.841Z,20.67
2017-09-21T21:31:26.826Z,16.27
2017-09-21T21:33:52.821Z,19.47
2017-09-21T21:36:18.797Z,18.60
2017-09-21T21:38:44.792Z,18.60
2017-09-21T21:41:10.759Z,20.90
2017-09-21T21:43:36.722Z,20.33
2017-09-21T21:46:02.693Z,20.03
2017-09-21T21:48:28.673Z,20.20
2017-09-21T21:50:54.654Z,21.33
2017-09-21T21:53:21.344Z,22.07
2017-09-21T21:55:47.373Z,21.77
2017-09-21T21:58:14.126Z,22.77
2017-09-21T22:00:40.834Z,22.13
2017-09-21T22:03:07.574Z,21.60
2017-09-21T22:05:34.272Z,22.07
2017-09-21T22:08:00.222Z,22.67
2017-09-21T22:10:26.216Z,22.47
2017-09-21T22:12:52.982Z,24.90
2017-09-21T22:15:18.943Z,22.60
2017-09-21T22:17:45.661Z,22.80
2017-09-21T22:20:11.643Z,21.93
2017-09-21T22:22:37.600Z,23.13
2017-09-21T22:25:03.597Z,22.90
2017-09-21T22:27:30.306Z,22.97
2017-09-21T22:29:56.263Z,22.00
2017-09-21T22:32:22.241Z,20.27
2017-09-21T22:34:48.930Z,23.23
2017-09-21T22:37:14.910Z,21.63
2017-09-21T22:39:40.889Z,22.30
2017-09-21T22:42:06.857Z,19.80
2017-09-21T22:44:32.838Z,22.03
2017-09-21T22:46:58.810Z,21.93
2017-09-21T22:49:25.583Z,20.37
2017-09-21T22:51:51.527Z,22.97
2017-09-21T22:54:17.461Z,22.43
2017-09-21T22:56:43.451Z,22.90
2017-09-21T22:59:10.188Z,22.33
2017-09-21T23:01:36.954Z,22.13
2017-09-21T23:04:02.905Z,20.40
2017-09-21T23:06:29.641Z,19.73
2017-09-21T23:08:56.369Z,21.33
2017-09-21T23:11:23.059Z,21.43
2017-09-21T23:13:49.011Z,19.80
2017-09-21T23:16:15.000Z,19.73
2017-09-21T23:18:41.699Z,18.33
2017-09-21T23:21:07.685Z,18.13
2017-09-21T23:23:33.625Z,18.50
2017-09-21T23:25:59.614Z,20.40
2017-09-21T23:28:25.567Z,18.83
2017-09-21T23:30:52.266Z,18.33
2017-09-21T23:33:18.245Z,19.53
2017-09-21T23:35:44.189Z,17.93
2017-09-21T23:38:10.198Z,18.53
2017-09-21T23:40:36.144Z,18.40
2017-09-21T23:43:02.091Z,17.73
2017-09-21T23:45:28.070Z,16.57
2017-09-21T23:47:54.034Z,16.80
2017-09-21T23:50:20.006Z,21.83
2017-09-21T23:52:45.981Z,16.27
2017-09-21T23:55:11.965Z,17.43
2017-09-21T23:57:38.689Z,16.17
